createdAt,value
2022-11-24T00:02:30.519Z,32.45
2022-11-24T00:05:38.476Z,29.92
2022-11-24T00:08:42.570Z,28.95
2022-11-24T00:11:44.814Z,28.73
2022-11-24T00:14:47.212Z,30.80
2022-11-24T00:17:49.349Z,30.33
2022-11-24T00:20:54.425Z,30.33
2022-11-24T00:23:57.313Z,30.48
2022-11-24T00:26:59.496Z,28.63
2022-11-24T00:30:01.689Z,28.83
2022-11-24T00:33:03.911Z,30.45
2022-11-24T00:36:06.204Z,31.73
2022-11-24T00:39:12.049Z,29.67
2022-11-24T00:42:17.319Z,30.20
2022-11-24T00:45:19.564Z,30.10
2022-11-24T00:48:22.336Z,30.15
2022-11-24T00:51:27.986Z,33.38
2022-11-24T00:54:30.217Z,30.85
2022-11-24T00:57:35.190Z,28.87
2022-11-24T01:00:37.364Z,26.48
2022-11-24T01:03:39.981Z,28.95
2022-11-24T01:06:42.173Z,27.85
2022-11-24T01:09:45.665Z,34.72
2022-11-24T01:12:47.959Z,31.73
2022-11-24T01:15:50.187Z,31.65
2022-11-24T01:18:52.983Z,34.45
2022-11-24T01:21:55.184Z,33.88
2022-11-24T01:24:57.315Z,34.60
2022-11-24T01:27:59.512Z,32.03
2022-11-24T01:31:06.482Z,33.60
2022-11-24T01:34:08.746Z,35.75
2022-11-24T01:37:11.939Z,35.60
2022-11-24T01:40:14.160Z,36.15
2022-11-24T01:43:21.567Z,39.10
2022-11-24T01:46:37.832Z,43.10
2022-11-24T01:49:44.342Z,44.85
2022-11-24T01:52:50.582Z,42.70
2022-11-24T01:55:53.285Z,40.22
2022-11-24T01:58:57.948Z,38.97
2022-11-24T02:02:00.334Z,39.20
2022-11-24T02:05:06.395Z,34.78
2022-11-24T02:08:39.820Z,33.08
2022-11-24T02:11:42.995Z,34.45
2022-11-24T02:14:45.760Z,33.13
2022-11-24T02:17:47.960Z,39.10
2022-11-24T02:20:50.187Z,32.83
2022-11-24T02:24:08.563Z,30.92
2022-11-24T02:27:11.308Z,31.17
2022-11-24T02:30:13.623Z,28.97
2022-11-24T02:33:16.007Z,29.48
2022-11-24T02:36:18.199Z,28.83
2022-11-24T02:39:21.190Z,29.20
2022-11-24T02:42:24.163Z,24.75
2022-11-24T02:45:27.251Z,26.83
2022-11-24T02:48:29.447Z,27.02
2022-11-24T02:51:31.669Z,25.48
2022-11-24T02:54:34.190Z,29.27
2022-11-24T02:57:36.608Z,30.42
2022-11-24T03:00:38.776Z,36.17
2022-11-24T03:03:41.042Z,36.88
2022-11-24T03:06:43.497Z,39.78
2022-11-24T03:09:45.778Z,39.00
2022-11-24T03:12:47.926Z,45.65
2022-11-24T03:15:50.161Z,47.63
2022-11-24T03:18:52.767Z,51.30
2022-11-24T03:21:54.956Z,58.40
2022-11-24T03:24:57.165Z,54.17
2022-11-24T03:28:00.047Z,58.40
2022-11-24T03:31:08.089Z,50.97
2022-11-24T03:34:11.258Z,61.03
2022-11-24T03:37:21.513Z,57.13
2022-11-24T03:40:25.430Z,57.83
2022-11-24T03:43:29.432Z,64.82
2022-11-24T03:46:31.996Z,69.30
2022-11-24T03:49:34.444Z,71.60
2022-11-24T03:52:37.111Z,68.55
2022-11-24T03:55:39.318Z,67.88
2022-11-24T03:58:41.452Z,68.18
2022-11-24T04:01:43.706Z,71.40
2022-11-24T04:04:50.925Z,64.00
2022-11-24T04:07:57.020Z,64.05
2022-11-24T04:10:59.326Z,59.88
2022-11-24T04:14:02.248Z,63.30
2022-11-24T04:17:05.243Z,60.13
2022-11-24T04:20:08.123Z,58.88
2022-11-24T04:23:10.923Z,62.28
2022-11-24T04:26:13.482Z,57.35
2022-11-24T04:29:15.679Z,65.90
2022-11-24T04:32:18.474Z,63.70
2022-11-24T04:35:21.186Z,58.72
2022-11-24T04:39:23.008Z,62.03
2022-11-24T04:41:47.737Z,60.67
2022-11-24T04:44:50.310Z,57.38
2022-11-24T04:47:52.545Z,58.80
2022-11-24T04:50:54.893Z,60.97
2022-11-24T04:53:57.146Z,60.65
2022-11-24T04:56:59.618Z,53.50
2022-11-24T05:00:01.961Z,58.85
2022-11-24T05:03:04.547Z,60.97
2022-11-24T05:06:08.904Z,66.47
2022-11-24T05:09:14.375Z,67.07
2022-11-24T05:12:16.532Z,61.08
2022-11-24T05:15:18.657Z,60.60
2022-11-24T05:18:20.881Z,64.03
2022-11-24T05:21:23.553Z,69.07
2022-11-24T05:24:25.671Z,66.88
2022-11-24T05:27:28.000Z,66.57
2022-11-24T05:30:30.927Z,64.38
2022-11-24T05:33:33.560Z,65.67
2022-11-24T05:36:54.013Z,65.90
2022-11-24T05:39:56.150Z,65.47
2022-11-24T05:42:58.830Z,61.85
2022-11-24T05:46:01.720Z,60.10
2022-11-24T05:49:04.173Z,63.23
2022-11-24T05:52:06.322Z,66.38
2022-11-24T05:55:09.613Z,57.58
2022-11-24T05:58:11.759Z,61.97
2022-11-24T06:01:13.995Z,59.75
2022-11-24T06:04:16.663Z,56.33
2022-11-24T06:07:19.108Z,58.92
2022-11-24T06:10:23.889Z,61.70
2022-11-24T06:13:26.083Z,53.25
2022-11-24T06:16:28.428Z,61.30
2022-11-24T06:19:30.787Z,56.53
2022-11-24T06:22:33.965Z,54.08
2022-11-24T06:25:36.172Z,51.58
2022-11-24T06:28:38.364Z,52.25
2022-11-24T06:31:40.728Z,54.25
2022-11-24T06:34:43.074Z,51.30
2022-11-24T06:37:45.920Z,45.08
2022-11-24T06:40:49.359Z,46.30
2022-11-24T06:43:51.598Z,45.85
2022-11-24T06:46:53.772Z,38.70
2022-11-24T06:49:56.111Z,38.40
2022-11-24T06:52:58.228Z,44.10
2022-11-24T06:56:00.836Z,42.83
2022-11-24T06:59:02.992Z,42.25
2022-11-24T07:02:05.413Z,42.83
2022-11-24T07:05:07.941Z,40.67
2022-11-24T07:08:13.235Z,41.10
2022-11-24T07:11:22.092Z,38.13
2022-11-24T07:14:24.319Z,36.47
2022-11-24T07:17:26.486Z,32.53
2022-11-24T07:20:28.682Z,34.73
2022-11-24T07:23:30.860Z,31.17
2022-11-24T07:26:37.313Z,34.25
2022-11-24T07:29:39.619Z,27.20
2022-11-24T07:32:41.733Z,31.38
2022-11-24T07:35:43.839Z,28.70
2022-11-24T07:38:46.403Z,30.90
2022-11-24T07:41:48.505Z,30.83
2022-11-24T07:44:50.850Z,31.73
2022-11-24T07:47:53.048Z,28.25
2022-11-24T07:50:56.304Z,27.50
2022-11-24T07:53:58.643Z,25.95
2022-11-24T07:57:00.885Z,26.65
2022-11-24T08:00:05.906Z,25.77
2022-11-24T08:03:08.044Z,24.25
2022-11-24T08:09:32.967Z,24.27
2022-11-24T08:12:35.206Z,22.55
2022-11-24T08:15:37.497Z,24.15
2022-11-24T08:18:39.740Z,26.02
2022-11-24T08:21:41.931Z,26.47
2022-11-24T08:24:47.664Z,25.75
2022-11-24T08:27:50.077Z,28.45
2022-11-24T08:30:52.188Z,24.65
2022-11-24T08:33:55.849Z,26.15
2022-11-24T08:36:58.077Z,26.67
2022-11-24T08:40:00.587Z,25.08
2022-11-24T08:43:02.736Z,24.65
2022-11-24T08:46:10.363Z,24.85
2022-11-24T08:49:14.567Z,29.20
2022-11-24T08:52:17.017Z,25.13
2022-11-24T08:55:19.338Z,29.50
2022-11-24T08:58:21.509Z,26.65
2022-11-24T09:01:24.802Z,26.67
2022-11-24T09:04:27.030Z,23.58
2022-11-24T09:07:29.230Z,24.17
2022-11-24T09:10:31.391Z,22.77
2022-11-24T09:13:34.054Z,26.88
2022-11-24T09:16:36.286Z,26.25
2022-11-24T09:19:38.427Z,25.30
2022-11-24T09:22:43.049Z,29.77
2022-11-24T09:25:45.264Z,28.77
2022-11-24T09:28:48.161Z,29.70
2022-11-24T09:31:50.348Z,27.35
2022-11-24T09:34:52.532Z,28.65
2022-11-24T09:37:54.681Z,30.03
2022-11-24T09:41:18.070Z,29.02
2022-11-24T09:44:41.564Z,28.38
2022-11-24T09:47:45.475Z,31.42
2022-11-24T09:50:48.734Z,27.95
2022-11-24T09:53:55.068Z,29.60
2022-11-24T09:57:01.275Z,33.22
2022-11-24T10:00:11.447Z,28.58
2022-11-24T10:03:21.775Z,31.25
2022-11-24T10:06:27.211Z,26.58
2022-11-24T10:09:50.606Z,28.97
2022-11-24T10:13:30.006Z,32.75
2022-11-24T10:16:37.910Z,32.33
2022-11-24T10:19:52.144Z,35.03
2022-11-24T10:23:39.838Z,32.40
2022-11-24T10:26:59.782Z,34.43
2022-11-24T10:30:02.311Z,31.35
2022-11-24T10:33:28.796Z,31.40
2022-11-24T10:36:47.209Z,30.17
2022-11-24T10:40:00.822Z,30.90
2022-11-24T10:43:05.296Z,32.23
2022-11-24T10:46:24.742Z,33.63
2022-11-24T10:49:33.801Z,31.92
2022-11-24T10:52:45.294Z,36.33
2022-11-24T10:55:56.577Z,36.65
2022-11-24T10:59:38.612Z,33.90
2022-11-24T11:02:41.821Z,38.42
2022-11-24T11:06:02.939Z,34.92
2022-11-24T11:09:08.085Z,41.33
2022-11-24T11:12:46.015Z,40.10
2022-11-24T11:15:48.270Z,39.00
2022-11-24T11:18:50.482Z,40.08
2022-11-24T11:22:16.827Z,39.88
2022-11-24T11:25:22.436Z,41.25
2022-11-24T11:28:29.165Z,36.47
2022-11-24T11:31:34.385Z,36.47
2022-11-24T11:34:37.762Z,36.45
2022-11-24T11:37:40.560Z,32.63
2022-11-24T11:40:43.939Z,34.72
2022-11-24T11:43:47.195Z,33.03
2022-11-24T11:46:49.463Z,29.93
2022-11-24T11:49:51.712Z,31.92
2022-11-24T11:53:18.239Z,29.08
2022-11-24T11:56:30.263Z,29.70
2022-11-24T11:59:44.916Z,27.88
2022-11-24T12:03:24.710Z,32.40
2022-11-24T12:07:03.816Z,28.38
2022-11-24T12:10:15.188Z,29.10
2022-11-24T12:13:49.226Z,30.05
2022-11-24T12:17:06.866Z,29.38
2022-11-24T12:20:17.879Z,29.20
2022-11-24T12:23:26.705Z,28.45
2022-11-24T12:26:42.059Z,28.17
2022-11-24T12:30:16.914Z,29.98
2022-11-24T12:33:19.065Z,24.75
2022-11-24T12:36:37.199Z,26.93
2022-11-24T12:39:50.976Z,28.58
2022-11-24T12:43:30.116Z,27.20
2022-11-24T12:46:51.728Z,28.25
2022-11-24T12:50:09.024Z,26.77
2022-11-24T12:53:23.973Z,26.80
2022-11-24T12:56:31.734Z,23.20
2022-11-24T12:59:40.309Z,22.08
2022-11-24T13:02:57.418Z,25.70
2022-11-24T13:06:04.130Z,25.65
2022-11-24T13:09:10.155Z,25.73
2022-11-24T13:12:13.849Z,24.80
2022-11-24T13:15:43.382Z,21.67
2022-11-24T13:18:48.537Z,26.90
2022-11-24T13:22:01.136Z,26.50
2022-11-24T13:25:16.589Z,25.90
2022-11-24T13:29:03.540Z,26.20
2022-11-24T13:32:11.907Z,23.33
2022-11-24T13:35:15.519Z,26.90
2022-11-24T13:38:38.949Z,25.98
2022-11-24T13:41:41.052Z,26.27
2022-11-24T13:44:56.520Z,26.10
2022-11-24T13:47:58.691Z,24.13
2022-11-24T13:51:01.561Z,23.80
2022-11-24T13:54:03.887Z,25.52
2022-11-24T13:57:43.579Z,23.67
2022-11-24T14:01:10.439Z,23.92
2022-11-24T14:04:30.646Z,23.50
2022-11-24T14:07:34.335Z,25.25
2022-11-24T14:10:40.748Z,22.77
2022-11-24T14:13:42.889Z,29.70
2022-11-24T14:16:45.015Z,25.30
2022-11-24T14:19:49.249Z,22.17
2022-11-24T14:22:51.813Z,25.10
2022-11-24T14:25:54.574Z,23.80
2022-11-24T14:29:16.023Z,24.20
2022-11-24T14:32:18.146Z,24.58
2022-11-24T14:35:25.686Z,23.80
2022-11-24T14:38:28.215Z,25.02
2022-11-24T14:41:31.075Z,24.52
2022-11-24T14:44:58.619Z,21.90
2022-11-24T14:48:00.787Z,26.65
2022-11-24T14:51:08.774Z,24.55
2022-11-24T14:54:18.317Z,24.60
2022-11-24T14:57:24.916Z,24.73
2022-11-24T15:00:32.721Z,23.97
2022-11-24T15:03:34.951Z,26.08
2022-11-24T15:06:37.102Z,24.85
2022-11-24T15:09:47.876Z,25.20
2022-11-24T15:12:58.708Z,25.83
2022-11-24T15:16:04.086Z,28.90
2022-11-24T15:19:12.110Z,26.60
2022-11-24T15:22:46.545Z,27.85
2022-11-24T15:25:53.111Z,27.85
2022-11-24T15:28:55.410Z,26.23
2022-11-24T15:31:58.645Z,25.63
2022-11-24T15:35:00.925Z,25.77
2022-11-24T15:38:03.064Z,27.70
2022-11-24T15:41:16.620Z,24.42
2022-11-24T15:44:18.857Z,27.45
2022-11-24T15:47:20.999Z,24.10
2022-11-24T15:50:23.131Z,27.17
2022-11-24T15:53:30.149Z,25.75
2022-11-24T15:56:34.939Z,26.25
2022-11-24T15:59:38.442Z,26.90
2022-11-24T16:02:41.500Z,24.60
2022-11-24T16:05:44.329Z,23.88
2022-11-24T16:08:47.191Z,30.17
2022-11-24T16:11:49.272Z,28.27
2022-11-24T16:14:51.418Z,27.60
2022-11-24T16:17:53.678Z,26.67
2022-11-24T16:20:56.266Z,27.13
2022-11-24T16:23:58.683Z,25.45
2022-11-24T16:27:00.847Z,24.98
2022-11-24T16:30:03.601Z,26.70
2022-11-24T16:33:07.011Z,26.20
2022-11-24T16:36:09.479Z,27.58
2022-11-24T16:39:11.962Z,28.40
2022-11-24T16:42:14.812Z,27.35
2022-11-24T16:45:18.031Z,29.50
2022-11-24T16:48:20.195Z,25.10
2022-11-24T16:51:23.849Z,28.58
2022-11-24T16:54:26.013Z,27.73
2022-11-24T16:57:28.181Z,29.35
2022-11-24T17:00:31.183Z,29.90
2022-11-24T17:03:36.413Z,27.47
2022-11-24T17:06:38.947Z,27.48
2022-11-24T17:09:41.722Z,30.85
2022-11-24T17:12:44.881Z,28.52
2022-11-24T17:15:52.611Z,27.75
2022-11-24T17:18:59.009Z,29.90
2022-11-24T17:22:01.476Z,25.60
2022-11-24T17:25:05.724Z,31.98
2022-11-24T17:28:07.961Z,32.22
2022-11-24T17:31:35.833Z,26.80
2022-11-24T17:34:38.560Z,27.73
2022-11-24T17:37:41.063Z,32.10
2022-11-24T17:40:48.366Z,29.10
2022-11-24T17:43:55.818Z,28.13
2022-11-24T17:46:59.321Z,30.80
2022-11-24T17:50:01.791Z,29.87
2022-11-24T17:53:04.026Z,26.50
2022-11-24T17:56:07.936Z,28.63
2022-11-24T17:59:10.484Z,29.08
2022-11-24T18:02:12.814Z,24.55
2022-11-24T18:05:26.454Z,25.00
2022-11-24T18:08:29.286Z,27.45
2022-11-24T18:11:33.014Z,27.10
2022-11-24T18:14:36.374Z,25.02
2022-11-24T18:17:40.162Z,48.65
2022-11-24T18:20:45.002Z,44.27
2022-11-24T18:23:47.991Z,36.90
2022-11-24T18:26:50.604Z,36.60
2022-11-24T18:29:56.127Z,37.28
2022-11-24T18:32:59.051Z,29.88
2022-11-24T18:36:05.209Z,44.50
2022-11-24T18:39:09.084Z,36.00
2022-11-24T18:42:11.867Z,34.65
2022-11-24T18:45:14.748Z,28.65
2022-11-24T18:48:17.679Z,29.63
2022-11-24T18:51:20.978Z,33.80
2022-11-24T18:54:23.630Z,29.63
2022-11-24T18:57:26.459Z,33.28
2022-11-24T19:00:29.238Z,31.08
2022-11-24T19:03:32.015Z,30.02
2022-11-24T19:06:37.227Z,31.87
2022-11-24T19:09:40.250Z,29.95
2022-11-24T19:12:43.285Z,76.93
2022-11-24T19:15:47.080Z,32.60
2022-11-24T19:18:53.651Z,39.13
2022-11-24T19:21:57.293Z,82.47
2022-11-24T19:24:59.999Z,54.72
2022-11-24T19:28:02.832Z,44.22
2022-11-24T19:31:07.656Z,32.75
2022-11-24T19:34:10.832Z,31.00
2022-11-24T19:37:14.412Z,32.70
2022-11-24T19:40:17.114Z,39.28
2022-11-24T19:43:19.772Z,36.83
2022-11-24T19:46:23.670Z,36.50
2022-11-24T19:49:26.388Z,38.70
2022-11-24T19:52:31.110Z,36.50
2022-11-24T19:55:36.726Z,39.65
2022-11-24T19:58:39.995Z,46.25
2022-11-24T20:01:43.233Z,49.67
2022-11-24T20:04:47.301Z,38.90
2022-11-24T20:07:51.274Z,37.97
2022-11-24T20:10:55.030Z,39.85
2022-11-24T20:13:59.040Z,35.22
2022-11-24T20:17:02.991Z,38.92
2022-11-24T20:20:08.197Z,38.40
2022-11-24T20:23:17.136Z,38.53
2022-11-24T20:26:24.011Z,35.60
2022-11-24T20:29:28.417Z,122.22
2022-11-24T20:32:33.061Z,53.47
2022-11-24T20:35:54.773Z,51.00
2022-11-24T20:38:59.794Z,37.37
2022-11-24T20:42:02.010Z,46.35
2022-11-24T20:45:04.949Z,40.80
2022-11-24T20:48:07.156Z,40.30
2022-11-24T20:51:12.513Z,45.50
2022-11-24T20:54:18.640Z,42.40
2022-11-24T20:57:21.898Z,35.70
2022-11-24T21:00:27.439Z,43.47
2022-11-24T21:03:31.243Z,36.45
2022-11-24T21:06:34.193Z,34.55
2022-11-24T21:09:36.438Z,36.13
2022-11-24T21:12:38.786Z,45.80
2022-11-24T21:15:41.412Z,40.35
2022-11-24T21:18:46.186Z,46.33
2022-11-24T21:21:49.235Z,34.35
2022-11-24T21:24:52.108Z,36.53
2022-11-24T21:27:54.734Z,33.65
2022-11-24T21:31:09.953Z,32.28
2022-11-24T21:34:15.318Z,31.25
2022-11-24T21:37:18.731Z,36.58
2022-11-24T21:40:20.963Z,34.27
2022-11-24T21:43:23.187Z,30.13
2022-11-24T21:46:25.402Z,32.22
2022-11-24T21:49:27.600Z,37.20
2022-11-24T21:52:29.819Z,35.00
2022-11-24T21:55:31.920Z,32.50
2022-11-24T21:58:34.310Z,40.15
2022-11-24T22:01:36.576Z,35.55
2022-11-24T22:04:39.241Z,33.90
2022-11-24T22:07:44.117Z,34.58
2022-11-24T22:10:47.167Z,32.93
2022-11-24T22:13:51.177Z,32.33
2022-11-24T22:16:54.782Z,28.98
2022-11-24T22:19:57.772Z,31.20
2022-11-24T22:23:00.763Z,29.95
2022-11-24T22:26:06.220Z,36.07
2022-11-24T22:29:09.208Z,37.63
2022-11-24T22:32:12.299Z,33.08
2022-11-24T22:35:16.011Z,34.22
2022-11-24T22:38:19.003Z,35.25
2022-11-24T22:41:22.196Z,54.20
2022-11-24T22:44:24.595Z,49.50
2022-11-24T22:47:26.701Z,44.00
2022-11-24T22:50:28.875Z,47.03
2022-11-24T22:53:31.070Z,60.35
2022-11-24T22:56:34.103Z,46.20
2022-11-24T22:59:36.268Z,45.05
2022-11-24T23:02:38.477Z,51.63
2022-11-24T23:05:40.712Z,47.35
2022-11-24T23:08:43.425Z,42.95
2022-11-24T23:11:45.595Z,36.90
2022-11-24T23:14:47.806Z,35.22
2022-11-24T23:17:49.919Z,36.90
2022-11-24T23:20:52.038Z,38.65
2022-11-24T23:23:54.539Z,42.25
2022-11-24T23:26:56.689Z,39.60
2022-11-24T23:29:58.900Z,39.00
2022-11-24T23:33:01.106Z,49.58
2022-11-24T23:36:06.385Z,44.95
2022-11-24T23:39:11.895Z,39.15
2022-11-24T23:42:13.997Z,42.10
2022-11-24T23:45:16.247Z,43.40
2022-11-24T23:48:18.395Z,42.30
2022-11-24T23:51:28.939Z,46.92
2022-11-24T23:57:50.861Z,44.33
